KLHM/LHM METAR and TAF weather

Enter ICAO airport designator
Station Type Date Time Source
KLHM METAR 2021/05/07 01:35 UTC NOAA

KLHM 070135Z AUTO 19011KT 10SM CLR 26/08 A2991 RMK AO1


Station Type Date Time Source
KLHM Decoded METAR 2021/05/07 01:35 UTC NOAA

Station name not available
May 06, 2021 - 09:35 PM EDT / 2021.05.07 0135 UTC
Wind: from the S (190 degrees) at 13 MPH (11 KT):0
Visibility: 10 mile(s):0
Sky conditions: clear
Temperature: 78 F (26 C)
Dew Point: 46 F (8 C)
Relative Humidity: 31%
Pressure (altimeter): 29.91 in. Hg (1012 hPa)
ob: KLHM 070135Z AUTO 19011KT 10SM CLR 26/08 A2991 RMK AO1
cycle: 1

Station Type Date Time Source
KLHM TAF UTC NOAA

Error!

Example: see airport list